TimeEST,TemperatureF,Dew PointF,Humidity,Sea Level PressureIn,VisibilityMPH,Wind Direction,Wind SpeedMPH,Gust SpeedMPH,PrecipitationIn,Events,Conditions,WindDirDegrees,DateUTC
12:55 AM,-4.9,-10.3,78,30.19,10.0,SE,8.1,-,N/A,,Overcast,140,2013-01-24 05:55:00
12:59 AM,-4.0,-11.2,71,30.19,10.0,SE,8.1,-,N/A,,Overcast,140,2013-01-24 05:59:00
1:28 AM,-5.8,-11.2,77,30.20,10.0,ESE,4.6,-,N/A,,Overcast,120,2013-01-24 06:28:00
1:55 AM,-5.1,-10.8,76,30.20,10.0,SE,5.8,-,N/A,,Overcast,140,2013-01-24 06:55:00
2:19 AM,-4.0,-9.4,78,30.20,10.0,ESE,4.6,-,N/A,,Overcast,120,2013-01-24 07:19:00
2:55 AM,-4.9,-10.8,76,30.21,10.0,ESE,5.8,-,N/A,,Overcast,120,2013-01-24 07:55:00
3:55 AM,-4.9,-11.0,75,30.22,10.0,SE,4.6,-,N/A,,Overcast,130,2013-01-24 08:55:00
4:55 AM,-10.3,-15.3,78,30.25,10.0,NNE,5.8,-,N/A,,Clear,30,2013-01-24 09:55:00
5:55 AM,-11.2,-15.3,82,30.27,10.0,NNE,5.8,-,N/A,,Clear,20,2013-01-24 10:55:00
6:55 AM,-11.2,-15.5,81,30.30,10.0,Calm,Calm,-,N/A,,Clear,0,2013-01-24 11:55:00
7:55 AM,-12.1,-16.4,81,30.33,10.0,Calm,Calm,-,N/A,,Clear,0,2013-01-24 12:55:00
8:55 AM,-7.1,-13.0,75,30.35,10.0,WNW,3.5,-,N/A,,Clear,300,2013-01-24 13:55:00
9:55 AM,-4.5,-14.6,62,30.38,10.0,NW,5.8,-,N/A,,Clear,320,2013-01-24 14:55:00
10:55 AM,-2.6,-15.2,55,30.40,10.0,NNE,8.1,-,N/A,,Clear,20,2013-01-24 15:55:00
11:55 AM,0.1,-13.5,53,30.39,10.0,NW,8.1,-,N/A,,Clear,320,2013-01-24 16:55:00
12:55 PM,1.8,-12.8,51,30.38,10.0,NW,5.8,-,N/A,,Clear,310,2013-01-24 17:55:00
1:55 PM,4.5,-10.7,50,30.37,10.0,West,10.4,18.4,N/A,,Clear,280,2013-01-24 18:55:00
2:55 PM,5.5,-9.2,51,30.38,10.0,West,8.1,-,N/A,,Clear,260,2013-01-24 19:55:00
3:55 PM,6.6,-5.4,58,30.40,10.0,WSW,10.4,18.4,N/A,,Clear,250,2013-01-24 20:55:00
4:55 PM,6.4,-5.3,59,30.41,10.0,West,6.9,-,N/A,,Clear,270,2013-01-24 21:55:00
5:55 PM,5.0,-7.6,56,30.42,10.0,WNW,3.5,-,N/A,,Clear,290,2013-01-24 22:55:00
6:55 PM,4.1,-7.2,59,30.43,10.0,West,5.8,-,N/A,,Clear,270,2013-01-24 23:55:00
7:55 PM,4.6,-9.4,52,30.45,10.0,West,5.8,-,N/A,,Clear,280,2013-01-25 00:55:00
8:55 PM,4.6,-8.5,55,30.45,10.0,WNW,6.9,-,N/A,,Clear,290,2013-01-25 01:55:00
9:55 PM,3.2,-7.4,61,30.47,10.0,WNW,4.6,-,N/A,,Clear,300,2013-01-25 02:55:00
10:55 PM,1.9,-8.0,63,30.48,10.0,NNW,4.6,-,N/A,,Clear,340,2013-01-25 03:55:00
11:55 PM,0.3,-8.3,67,30.48,10.0,NNW,3.5,-,N/A,,Clear,330,2013-01-25 04:55:00